Time;durP1;ratioP1;P1;durP2;ratioP2;P2;SDS_P1;SDS_P2;PMS_P1;PMS_P2;Temp;Humidity;BMP_temperature;BMP_pressure;BME280_temperature;BME280_humidity;BME280_pressure;Samples;Min_cycle;Max_cycle;Signal;HPM_P1;HPM_P2
2022/07/31 00:01:03;;;;;;;5.10;2.75;;;23.80;59.90;;;;;;5024892;28;20083;-69
2022/07/31 00:03:28;;;;;;;7.35;2.78;;;23.80;59.90;;;;;;5027166;28;20033;-69
2022/07/31 00:05:54;;;;;;;6.07;2.97;;;23.80;59.90;;;;;;5028981;28;20032;-69
2022/07/31 00:08:20;;;;;;;5.22;2.70;;;23.80;59.90;;;;;;5030136;28;20030;-69
2022/07/31 00:10:45;;;;;;;6.28;3.00;;;23.80;59.90;;;;;;5028532;28;20057;-69
2022/07/31 00:13:11;;;;;;;6.53;3.08;;;23.80;60.90;;;;;;5021862;28;20166;-69
2022/07/31 00:15:36;;;;;;;5.30;2.97;;;23.80;59.90;;;;;;5027825;28;20056;-69
2022/07/31 00:18:02;;;;;;;7.28;3.10;;;23.80;59.90;;;;;;5025156;28;20041;-69
2022/07/31 00:20:28;;;;;;;5.38;2.90;;;23.80;60.00;;;;;;5027730;28;20605;-69
2022/07/31 00:22:54;;;;;;;6.13;2.83;;;23.80;59.90;;;;;;5026480;28;20041;-70
2022/07/31 00:25:19;;;;;;;6.53;3.13;;;23.80;59.90;;;;;;5027597;28;20033;-69
2022/07/31 00:27:45;;;;;;;5.85;2.78;;;23.80;59.90;;;;;;5026024;28;20027;-69
2022/07/31 00:30:12;;;;;;;6.10;2.80;;;23.80;59.90;;;;;;5025667;28;20018;-69
2022/07/31 00:32:37;;;;;;;6.60;3.30;;;23.80;59.90;;;;;;5027637;28;20040;-69
2022/07/31 00:35:04;;;;;;;6.32;2.70;;;23.80;59.90;;;;;;5023986;28;20033;-69
2022/07/31 00:37:29;;;;;;;6.50;2.85;;;23.80;59.90;;;;;;5055139;28;20045;-69
2022/07/31 00:39:55;;;;;;;5.53;2.78;;;23.80;59.90;;;;;;5023280;28;20021;-69
2022/07/31 00:42:24;;;;;;;6.40;2.80;;;23.80;59.90;;;;;;5025539;28;20033;-70
2022/07/31 00:44:50;;;;;;;5.88;3.13;;;23.70;59.90;;;;;;5023323;28;20059;-69
2022/07/31 00:47:16;;;;;;;6.15;3.00;;;23.70;59.90;;;;;;5023685;28;20705;-69
2022/07/31 00:49:41;;;;;;;4.40;2.80;;;23.80;59.90;;;;;;5027005;28;20087;-69
2022/07/31 00:52:07;;;;;;;4.55;2.60;;;23.70;59.80;;;;;;5024444;28;20595;-70
2022/07/31 00:54:33;;;;;;;4.05;2.70;;;23.80;59.90;;;;;;5025137;28;20032;-69
2022/07/31 00:56:59;;;;;;;5.07;2.92;;;23.70;59.80;;;;;;5022636;28;20034;-69
2022/07/31 00:59:25;;;;;;;5.10;2.85;;;23.70;59.90;;;;;;5026989;28;20515;-70
2022/07/31 01:01:51;;;;;;;4.05;2.42;;;23.70;59.90;;;;;;5027352;28;20192;-69
2022/07/31 01:04:17;;;;;;;5.45;2.85;;;23.70;59.80;;;;;;5026870;28;20104;-69
2022/07/31 01:06:44;;;;;;;5.05;2.60;;;23.70;59.80;;;;;;5026253;28;20116;-69
2022/07/31 01:09:09;;;;;;;5.25;2.75;;;23.70;59.80;;;;;;5024721;28;20021;-69
2022/07/31 01:11:40;;;;;;;6.20;2.83;;;23.70;59.80;;;;;;5025288;28;20052;-69
2022/07/31 01:14:07;;;;;;;4.13;2.78;;;23.70;59.90;;;;;;5021237;28;20441;-69
2022/07/31 01:16:37;;;;;;;5.30;2.75;;;23.70;60.90;;;;;;5027077;28;20144;-69
2022/07/31 01:19:33;;;;;;;5.78;2.55;;;23.70;59.80;;;;;;5023012;28;20021;-69
2022/07/31 01:22:20;;;;;;;4.88;2.63;;;23.70;59.80;;;;;;5022062;28;20036;-69
2022/07/31 01:25:00;;;;;;;4.47;2.50;;;23.70;59.80;;;;;;5020902;28;20021;-70
2022/07/31 01:27:59;;;;;;;8.85;2.75;;;23.60;59.80;;;;;;5023842;28;20494;-69
2022/07/31 01:30:29;;;;;;;4.40;2.78;;;23.70;59.80;;;;;;5027126;28;20021;-68
2022/07/31 01:32:55;;;;;;;4.00;2.47;;;23.70;59.80;;;;;;5022632;28;20044;-69
2022/07/31 01:35:28;;;;;;;5.45;2.85;;;23.70;59.70;;;;;;5024696;28;20634;-69
2022/07/31 01:37:59;;;;;;;5.40;2.70;;;23.60;59.80;;;;;;5025158;28;20041;-69
2022/07/31 01:40:34;;;;;;;4.93;2.70;;;23.70;59.80;;;;;;5023436;28;20665;-69
2022/07/31 01:43:06;;;;;;;5.78;2.88;;;23.60;59.80;;;;;;5051534;28;20076;-69
2022/07/31 01:45:32;;;;;;;5.07;2.50;;;23.60;59.80;;;;;;5024156;28;20034;-69
2022/07/31 01:47:57;;;;;;;5.10;2.80;;;23.60;59.70;;;;;;5024184;28;20033;-69
2022/07/31 01:50:23;;;;;;;5.50;2.70;;;23.60;59.80;;;;;;5026180;28;20025;-69
2022/07/31 01:52:49;;;;;;;5.20;2.58;;;23.60;59.70;;;;;;5022923;28;20049;-69
2022/07/31 01:55:14;;;;;;;4.05;2.70;;;23.60;59.70;;;;;;5040519;28;20076;-69
2022/07/31 01:57:40;;;;;;;5.60;2.67;;;23.60;59.70;;;;;;5022057;28;20037;-69
2022/07/31 02:00:07;;;;;;;5.75;2.60;;;23.60;59.70;;;;;;5023902;28;20044;-69
2022/07/31 02:02:33;;;;;;;4.50;2.58;;;23.60;59.80;;;;;;5024470;28;20036;-69
2022/07/31 02:04:59;;;;;;;5.25;3.00;;;23.60;59.70;;;;;;5022604;28;20508;-69
2022/07/31 02:07:25;;;;;;;6.25;2.85;;;23.60;59.70;;;;;;5023601;28;20030;-69
2022/07/31 02:09:50;;;;;;;6.05;2.80;;;23.60;59.70;;;;;;5022258;28;20112;-69
2022/07/31 02:12:16;;;;;;;4.70;2.67;;;23.60;59.70;;;;;;5026484;28;20102;-69
2022/07/31 02:14:42;;;;;;;3.50;2.33;;;23.60;59.70;;;;;;5023916;28;20065;-69
2022/07/31 02:17:08;;;;;;;6.43;2.83;;;23.60;59.70;;;;;;5020815;28;20052;-69
2022/07/31 02:19:38;;;;;;;4.65;2.58;;;23.60;59.60;;;;;;5023607;28;20025;-70
2022/07/31 02:22:04;;;;;;;5.55;2.70;;;23.60;59.70;;;;;;5024925;28;20037;-69
2022/07/31 02:24:29;;;;;;;5.95;2.95;;;23.60;59.70;;;;;;5023478;28;20452;-69
2022/07/31 02:26:55;;;;;;;5.78;2.65;;;23.60;59.60;;;;;;5021820;28;20029;-69
2022/07/31 02:29:21;;;;;;;4.80;2.88;;;23.60;59.60;;;;;;5008223;28;20052;-69
2022/07/31 02:31:47;;;;;;;5.40;2.78;;;23.60;59.60;;;;;;5005090;28;20033;-69
2022/07/31 02:34:13;;;;;;;5.10;2.40;;;23.60;59.60;;;;;;5021715;28;20017;-69
2022/07/31 02:36:39;;;;;;;4.72;2.50;;;23.60;59.70;;;;;;5024961;28;20478;-69
2022/07/31 02:39:04;;;;;;;4.03;2.80;;;23.60;59.70;;;;;;5040957;28;20116;-69
2022/07/31 02:41:30;;;;;;;4.80;2.67;;;23.60;59.60;;;;;;5024423;28;20029;-69
2022/07/31 02:43:56;;;;;;;4.47;2.60;;;23.60;59.60;;;;;;5023879;28;20038;-69
2022/07/31 02:46:22;;;;;;;4.65;2.50;;;23.50;59.50;;;;;;5023971;28;20033;-69
2022/07/31 02:48:48;;;;;;;5.53;2.50;;;23.60;59.70;;;;;;5022135;28;20388;-69
2022/07/31 02:51:13;;;;;;;4.78;2.70;;;23.60;59.60;;;;;;5023117;28;20485;-69
2022/07/31 02:53:39;;;;;;;3.90;2.40;;;23.60;59.60;;;;;;5024195;28;20127;-69
2022/07/31 02:56:05;;;;;;;4.80;2.58;;;23.50;59.60;;;;;;5020631;28;20614;-69
2022/07/31 02:58:30;;;;;;;4.35;2.50;;;23.50;59.50;;;;;;5023974;28;20092;-69
2022/07/31 03:01:04;;;;;;;5.43;2.65;;;23.50;59.60;;;;;;5022017;28;20076;-69
2022/07/31 03:03:29;;;;;;;5.45;2.70;;;23.50;59.50;;;;;;5022124;28;20029;-69
2022/07/31 03:05:55;;;;;;;5.15;2.63;;;23.50;59.50;;;;;;5022863;28;20032;-69
2022/07/31 03:08:21;;;;;;;4.38;2.60;;;23.60;59.60;;;;;;5021263;28;20096;-69
2022/07/31 03:10:47;;;;;;;4.90;2.50;;;23.50;59.60;;;;;;5023298;28;20449;-69
2022/07/31 03:13:13;;;;;;;5.10;2.83;;;23.50;59.50;;;;;;5025011;28;20512;-69
2022/07/31 03:15:39;;;;;;;4.85;2.58;;;23.50;59.50;;;;;;5023041;28;20510;-69
2022/07/31 03:18:04;;;;;;;6.40;2.88;;;23.50;59.50;;;;;;5023416;28;20540;-69
2022/07/31 03:20:30;;;;;;;4.22;2.70;;;23.50;59.50;;;;;;5022713;28;20022;-69
2022/07/31 03:22:56;;;;;;;4.75;2.40;;;23.50;59.50;;;;;;5024603;28;20033;-69
2022/07/31 03:25:21;;;;;;;4.25;2.40;;;23.50;59.60;;;;;;5008151;28;20547;-69
2022/07/31 03:27:48;;;;;;;4.93;2.58;;;23.50;59.60;;;;;;5024192;28;20029;-69
2022/07/31 03:30:15;;;;;;;4.90;2.90;;;23.50;59.50;;;;;;5019037;28;20029;-69
2022/07/31 03:32:42;;;;;;;5.03;2.55;;;23.50;59.60;;;;;;5020677;28;20061;-69
2022/07/31 03:35:07;;;;;;;4.97;2.58;;;23.50;59.50;;;;;;5023045;28;20083;-69
2022/07/31 03:37:33;;;;;;;4.50;2.80;;;23.50;59.70;;;;;;5020722;28;20033;-69
2022/07/31 03:39:59;;;;;;;5.70;2.70;;;23.50;59.60;;;;;;5024303;28;20026;-69
2022/07/31 03:42:24;;;;;;;5.00;2.75;;;23.50;59.60;;;;;;5019525;28;20037;-69
2022/07/31 03:44:50;;;;;;;4.60;2.40;;;23.50;59.60;;;;;;5024737;28;20026;-69
2022/07/31 03:47:16;;;;;;;4.38;2.42;;;23.40;59.50;;;;;;5023287;28;20040;-69
2022/07/31 03:49:41;;;;;;;4.78;2.78;;;23.50;59.60;;;;;;5023488;28;20033;-70
2022/07/31 03:52:07;;;;;;;5.90;2.70;;;23.50;59.60;;;;;;5021284;28;20099;-69
2022/07/31 03:54:32;;;;;;;4.18;2.53;;;23.40;59.50;;;;;;5022852;28;20072;-69
2022/07/31 03:56:58;;;;;;;3.95;2.50;;;23.50;59.60;;;;;;5025432;28;20037;-69
2022/07/31 03:59:24;;;;;;;6.10;2.70;;;23.40;59.60;;;;;;5053014;28;20025;-69
2022/07/31 04:01:49;;;;;;;4.00;2.50;;;23.40;59.50;;;;;;5022981;28;20048;-69
2022/07/31 04:04:16;;;;;;;4.43;2.50;;;23.50;59.60;;;;;;5023269;28;20029;-69
2022/07/31 04:06:43;;;;;;;3.97;2.53;;;23.40;59.60;;;;;;5020894;28;20068;-69
2022/07/31 04:09:08;;;;;;;3.28;2.22;;;23.40;59.60;;;;;;5026094;28;20030;-69
2022/07/31 04:11:34;;;;;;;4.35;2.50;;;23.40;59.60;;;;;;5024849;28;20030;-69
2022/07/31 04:13:59;;;;;;;3.17;2.28;;;23.40;59.60;;;;;;5023452;28;20044;-69
2022/07/31 04:16:25;;;;;;;4.38;2.55;;;23.40;59.50;;;;;;5024856;28;20100;-69
2022/07/31 04:18:51;;;;;;;4.68;2.40;;;23.40;59.50;;;;;;5025372;28;20061;-69
2022/07/31 04:21:16;;;;;;;4.07;2.47;;;23.40;59.60;;;;;;5026229;28;20490;-69
2022/07/31 04:23:42;;;;;;;2.92;2.10;;;23.40;59.70;;;;;;5027978;28;20394;-67
2022/07/31 04:26:08;;;;;;;3.28;2.17;;;23.40;59.60;;;;;;5019824;28;20169;-69
2022/07/31 04:28:33;;;;;;;4.97;2.33;;;23.40;59.60;;;;;;5024158;28;20438;-69
2022/07/31 04:30:59;;;;;;;3.70;2.30;;;23.40;59.60;;;;;;5024247;28;21119;-69
2022/07/31 04:33:25;;;;;;;5.80;2.58;;;23.40;59.60;;;;;;5026025;28;20026;-70
2022/07/31 04:35:51;;;;;;;3.55;2.42;;;23.40;59.60;;;;;;5026320;28;20061;-69
2022/07/31 04:38:17;;;;;;;3.72;2.30;;;23.40;59.60;;;;;;5027370;28;20044;-69
2022/07/31 04:40:42;;;;;;;6.45;2.72;;;23.40;59.60;;;;;;5023319;28;20033;-69
2022/07/31 04:43:08;;;;;;;4.20;2.45;;;23.30;59.50;;;;;;5027263;28;20029;-69
2022/07/31 04:45:34;;;;;;;3.95;2.30;;;23.40;59.60;;;;;;5026668;28;20657;-69
2022/07/31 04:47:59;;;;;;;4.47;2.50;;;23.40;59.60;;;;;;5025086;28;20493;-69
2022/07/31 04:50:25;;;;;;;4.93;2.42;;;23.30;59.50;;;;;;5021292;28;20502;-69
2022/07/31 04:52:51;;;;;;;4.22;2.50;;;23.30;59.50;;;;;;5023479;28;20146;-69
2022/07/31 04:55:16;;;;;;;4.10;2.50;;;23.40;59.60;;;;;;5026726;28;20052;-69
2022/07/31 04:57:42;;;;;;;5.10;2.47;;;23.40;59.60;;;;;;5023517;28;20026;-69
2022/07/31 05:00:09;;;;;;;4.70;2.60;;;23.30;59.60;;;;;;5024042;28;20089;-69
2022/07/31 05:02:35;;;;;;;4.70;2.50;;;23.40;59.60;;;;;;5026636;28;20041;-69
2022/07/31 05:05:00;;;;;;;5.35;2.70;;;23.30;59.60;;;;;;5025171;28;20025;-69
2022/07/31 05:07:26;;;;;;;4.35;2.55;;;23.30;59.60;;;;;;5026350;28;20022;-69
2022/07/31 05:09:52;;;;;;;4.70;2.50;;;23.30;59.60;;;;;;5025642;28;20037;-69
2022/07/31 05:12:17;;;;;;;5.55;2.53;;;23.40;59.60;;;;;;5023210;28;20109;-69
2022/07/31 05:14:43;;;;;;;4.55;2.30;;;23.30;59.60;;;;;;5027230;28;20091;-69
2022/07/31 05:17:09;;;;;;;4.32;2.63;;;23.30;59.60;;;;;;5020514;28;20042;-69
2022/07/31 05:19:34;;;;;;;3.65;2.25;;;23.40;59.70;;;;;;5025386;28;20067;-69
2022/07/31 05:22:00;;;;;;;3.90;2.38;;;23.40;59.60;;;;;;5022253;28;20044;-69
2022/07/31 05:24:26;;;;;;;4.00;2.30;;;23.30;59.70;;;;;;5023887;28;20470;-68
2022/07/31 05:26:56;;;;;;;4.80;2.20;;;23.30;59.60;;;;;;5022798;28;20041;-69
2022/07/31 05:29:22;;;;;;;5.03;2.60;;;23.30;59.60;;;;;;5024476;28;20060;-69
2022/07/31 05:31:48;;;;;;;3.53;2.17;;;23.30;59.70;;;;;;5026237;28;20049;-69
2022/07/31 05:34:13;;;;;;;6.00;2.50;;;23.30;59.60;;;;;;5028236;28;20025;-69
2022/07/31 05:36:39;;;;;;;3.92;2.20;;;23.30;59.70;;;;;;5025558;28;20494;-69
2022/07/31 05:39:05;;;;;;;4.65;2.35;;;23.30;59.60;;;;;;5025815;28;20088;-69
2022/07/31 05:41:32;;;;;;;4.32;2.50;;;23.30;59.60;;;;;;5028720;28;20033;-69
2022/07/31 05:43:58;;;;;;;4.18;2.35;;;23.30;59.70;;;;;;5027266;28;20537;-69
2022/07/31 05:46:24;;;;;;;3.35;2.25;;;23.30;59.60;;;;;;5032165;28;20029;-69
2022/07/31 05:48:50;;;;;;;4.30;2.40;;;23.30;59.60;;;;;;5030452;28;20029;-69
2022/07/31 05:51:15;;;;;;;4.80;2.70;;;23.20;59.70;;;;;;5025448;28;20057;-69
2022/07/31 05:53:41;;;;;;;5.22;2.30;;;23.30;59.70;;;;;;5023367;28;20056;-70
2022/07/31 05:56:07;;;;;;;3.25;1.98;;;23.30;59.70;;;;;;5025427;28;20030;-69
2022/07/31 05:58:33;;;;;;;5.07;2.20;;;23.30;59.70;;;;;;5026745;28;20099;-69
2022/07/31 06:00:59;;;;;;;3.45;2.38;;;23.30;59.70;;;;;;5024226;28;20029;-69
2022/07/31 06:03:28;;;;;;;3.83;2.33;;;23.30;59.70;;;;;;5026468;28;20053;-69
2022/07/31 06:05:55;;;;;;;3.63;2.20;;;23.30;59.70;;;;;;5025738;28;20662;-69
2022/07/31 06:08:21;;;;;;;4.07;2.58;;;23.30;59.70;;;;;;5026213;28;20087;-69
2022/07/31 06:10:48;;;;;;;4.47;2.30;;;23.20;59.60;;;;;;5025804;28;20029;-69
2022/07/31 06:13:14;;;;;;;3.15;2.20;;;23.30;59.70;;;;;;5022166;28;20040;-69
2022/07/31 06:15:41;;;;;;;5.25;2.40;;;23.20;59.70;;;;;;5027780;28;20027;-69
2022/07/31 06:18:06;;;;;;;4.05;2.20;;;23.20;59.70;;;;;;5027901;28;20710;-69
2022/07/31 06:20:32;;;;;;;4.20;2.40;;;23.20;59.70;;;;;;5026548;28;20108;-69
2022/07/31 06:22:58;;;;;;;3.42;2.22;;;23.20;59.70;;;;;;5025601;28;20457;-69
2022/07/31 06:25:24;;;;;;;3.85;2.10;;;23.20;59.70;;;;;;5024316;28;20029;-69
2022/07/31 06:27:50;;;;;;;3.85;2.20;;;23.20;59.70;;;;;;5030042;28;20033;-69
2022/07/31 06:30:16;;;;;;;3.83;2.00;;;23.20;59.70;;;;;;5021648;28;20083;-69
2022/07/31 06:32:42;;;;;;;4.07;2.20;;;23.20;59.70;;;;;;5021583;28;20033;-69
2022/07/31 06:35:09;;;;;;;3.45;1.88;;;23.20;59.70;;;;;;5020184;28;20018;-69
2022/07/31 06:37:34;;;;;;;3.55;2.20;;;23.20;59.70;;;;;;5019800;28;20464;-69
2022/07/31 06:40:00;;;;;;;3.60;2.10;;;23.20;60.70;;;;;;5022018;28;20120;-69
2022/07/31 06:42:26;;;;;;;3.35;2.15;;;23.20;59.70;;;;;;5019749;28;20060;-69
2022/07/31 06:44:51;;;;;;;4.05;2.33;;;23.20;59.80;;;;;;5020664;28;20387;-69
2022/07/31 06:47:18;;;;;;;3.10;2.20;;;23.20;59.70;;;;;;5020347;28;20437;-69
2022/07/31 06:49:44;;;;;;;4.93;2.40;;;23.20;59.70;;;;;;5018867;28;20022;-68
2022/07/31 06:52:09;;;;;;;4.25;2.28;;;23.20;59.70;;;;;;5020272;28;20092;-70
2022/07/31 06:54:35;;;;;;;3.30;2.00;;;23.20;59.80;;;;;;5021234;28;20502;-69
2022/07/31 06:57:01;;;;;;;3.42;2.20;;;23.20;59.70;;;;;;5019482;28;20088;-70
2022/07/31 06:59:26;;;;;;;3.60;2.10;;;23.20;59.70;;;;;;5018706;28;20421;-70
2022/07/31 07:01:52;;;;;;;3.30;2.10;;;23.20;59.80;;;;;;5020453;28;20521;-69
2022/07/31 07:04:18;;;;;;;2.97;2.03;;;23.20;59.80;;;;;;5019197;28;20048;-69
2022/07/31 07:06:43;;;;;;;4.00;2.40;;;23.20;59.80;;;;;;5018267;28;20459;-69
2022/07/31 07:09:09;;;;;;;3.55;2.10;;;23.20;59.80;;;;;;5020203;28;20474;-69
2022/07/31 07:11:34;;;;;;;3.35;2.15;;;23.20;59.80;;;;;;5019737;28;20494;-69
2022/07/31 07:14:00;;;;;;;3.10;2.10;;;23.20;59.70;;;;;;5021823;28;20022;-69
2022/07/31 07:16:26;;;;;;;2.95;2.05;;;23.20;59.80;;;;;;5019388;28;20041;-69
2022/07/31 07:18:52;;;;;;;3.67;2.15;;;23.20;59.80;;;;;;5020237;28;20037;-69
2022/07/31 07:21:17;;;;;;;3.50;2.05;;;23.20;59.80;;;;;;5020226;28;20030;-69
2022/07/31 07:23:43;;;;;;;2.92;2.00;;;23.20;59.80;;;;;;5018973;28;20033;-68
2022/07/31 07:26:08;;;;;;;4.30;2.15;;;23.20;59.80;;;;;;5019018;28;20033;-69
2022/07/31 07:28:34;;;;;;;3.20;2.00;;;23.10;59.90;;;;;;5018240;28;20024;-69
2022/07/31 07:31:00;;;;;;;3.85;2.00;;;23.20;59.80;;;;;;5019326;28;20395;-70
2022/07/31 07:33:26;;;;;;;2.55;1.75;;;23.20;59.80;;;;;;5020478;28;20576;-69
2022/07/31 07:35:52;;;;;;;2.33;1.73;;;23.20;59.80;;;;;;5020632;28;20033;-69
2022/07/31 07:38:17;;;;;;;3.38;2.15;;;23.20;59.90;;;;;;5021171;28;20511;-69
2022/07/31 07:40:43;;;;;;;3.55;2.10;;;23.20;59.80;;;;;;5020065;28;20417;-69
2022/07/31 07:43:09;;;;;;;2.88;1.98;;;23.20;59.80;;;;;;5024138;28;20088;-69
2022/07/31 07:45:34;;;;;;;2.60;1.83;;;23.20;59.80;;;;;;5022864;28;20024;-69
2022/07/31 07:48:00;;;;;;;4.90;2.05;;;23.20;59.80;;;;;;5023152;28;20032;-69
2022/07/31 07:50:25;;;;;;;3.40;2.00;;;23.10;59.80;;;;;;5021754;28;20029;-69
2022/07/31 07:52:51;;;;;;;2.58;1.90;;;23.20;59.90;;;;;;5024288;28;20047;-69
2022/07/31 07:55:17;;;;;;;3.25;2.10;;;23.20;59.80;;;;;;5021655;28;20087;-69
2022/07/31 07:57:43;;;;;;;4.13;2.20;;;23.10;59.70;;;;;;5021890;28;20045;-69
2022/07/31 08:00:10;;;;;;;3.17;2.00;;;23.10;59.90;;;;;;5023092;28;20108;-70
2022/07/31 08:02:36;;;;;;;3.22;2.10;;;23.10;59.70;;;;;;5027614;28;20403;-69
2022/07/31 08:05:01;;;;;;;3.75;2.00;;;23.10;59.80;;;;;;5027550;28;20037;-69
2022/07/31 08:07:28;;;;;;;2.60;1.85;;;23.10;59.80;;;;;;5026467;28;20034;-70
2022/07/31 08:09:58;;;;;;;4.00;2.00;;;23.10;59.80;;;;;;5026364;28;20116;-69
2022/07/31 08:12:26;;;;;;;2.33;1.80;;;23.10;59.80;;;;;;5026496;28;20037;-69
2022/07/31 08:14:52;;;;;;;2.90;1.80;;;23.10;59.80;;;;;;5028786;28;20037;-69
2022/07/31 08:17:17;;;;;;;3.08;2.05;;;23.10;59.70;;;;;;5026781;28;20043;-69
2022/07/31 08:19:43;;;;;;;2.80;1.90;;;23.10;59.70;;;;;;5027651;28;20079;-69
2022/07/31 08:22:09;;;;;;;4.97;2.20;;;23.10;59.80;;;;;;5028913;28;20087;-69
2022/07/31 08:24:34;;;;;;;3.35;2.10;;;23.10;59.70;;;;;;5026435;28;20018;-70
2022/07/31 08:29:46;;;;;;;2.45;1.73;;;23.10;59.80;;;;;;5026888;28;20520;-69
2022/07/31 08:32:12;;;;;;;3.85;2.10;;;23.10;59.70;;;;;;5028619;28;20045;-70
2022/07/31 08:34:37;;;;;;;3.45;2.05;;;23.10;59.80;;;;;;5028545;28;20105;-70
2022/07/31 08:37:05;;;;;;;4.47;2.22;;;23.10;59.70;;;;;;5027466;28;20044;-69
2022/07/31 08:39:31;;;;;;;3.15;1.98;;;23.10;59.80;;;;;;5027111;28;20025;-69
2022/07/31 08:41:57;;;;;;;2.97;1.90;;;23.10;59.80;;;;;;5022718;28;20529;-70
2022/07/31 08:44:24;;;;;;;3.45;2.00;;;23.10;59.90;;;;;;5024857;28;20049;-68
2022/07/31 08:46:49;;;;;;;2.80;2.00;;;23.10;59.90;;;;;;5020314;28;20060;-70
2022/07/31 08:49:18;;;;;;;2.92;2.05;;;23.10;59.80;;;;;;5010754;28;20050;-69
2022/07/31 08:51:44;;;;;;;2.45;2.00;;;23.10;59.80;;;;;;5025739;28;20449;-69
2022/07/31 08:54:10;;;;;;;2.95;2.00;;;23.10;59.90;;;;;;5026808;28;20033;-70
2022/07/31 08:56:36;;;;;;;3.40;1.80;;;23.10;59.80;;;;;;5028041;28;20040;-70
2022/07/31 08:59:03;;;;;;;2.88;1.70;;;23.10;59.80;;;;;;5026843;28;20041;-70
2022/07/31 09:01:28;;;;;;;2.63;1.90;;;23.10;59.80;;;;;;5027657;28;20072;-69
2022/07/31 09:03:54;;;;;;;3.58;2.00;;;23.10;59.70;;;;;;5025738;28;20037;-64
2022/07/31 09:06:20;;;;;;;2.20;1.60;;;23.10;59.60;;;;;;5027422;28;20100;-70
2022/07/31 09:08:45;;;;;;;2.63;1.60;;;23.20;61.20;;;;;;5023453;28;20033;-70
2022/07/31 09:11:12;;;;;;;1.48;1.10;;;23.20;61.50;;;;;;5026646;28;20034;-69
2022/07/31 09:13:39;;;;;;;2.33;1.42;;;23.20;63.10;;;;;;5025999;28;20029;-71
2022/07/31 09:16:05;;;;;;;2.03;1.30;;;23.20;62.70;;;;;;5024340;28;20730;-69
2022/07/31 09:18:31;;;;;;;1.58;1.00;;;23.30;63.20;;;;;;5025219;28;20079;-69
2022/07/31 09:21:01;;;;;;;2.22;1.00;;;23.20;63.80;;;;;;5026307;28;20025;-70
2022/07/31 09:23:27;;;;;;;1.55;1.00;;;23.30;64.30;;;;;;5020150;28;20033;-69
2022/07/31 09:26:02;;;;;;;2.72;1.10;;;23.30;64.40;;;;;;5027394;28;20091;-70
2022/07/31 09:28:35;;;;;;;1.90;0.95;;;23.30;65.00;;;;;;5020002;28;20053;-69
2022/07/31 09:31:02;;;;;;;3.13;1.10;;;23.30;64.80;;;;;;5026459;28;20040;-70
2022/07/31 09:33:29;;;;;;;2.00;1.02;;;23.40;65.30;;;;;;5027173;28;20449;-69
2022/07/31 09:35:55;;;;;;;3.83;1.40;;;23.30;66.30;;;;;;5026132;28;20034;-69
2022/07/31 09:38:22;;;;;;;2.92;1.20;;;23.40;65.00;;;;;;5026550;28;20029;-69
2022/07/31 09:40:47;;;;;;;2.38;1.10;;;23.30;64.70;;;;;;5026788;28;20104;-69
2022/07/31 09:43:23;;;;;;;2.70;1.40;;;23.30;64.20;;;;;;5024738;28;20557;-69
2022/07/31 09:45:56;;;;;;;3.13;1.35;;;23.40;64.20;;;;;;5023632;28;20069;-69
2022/07/31 09:48:22;;;;;;;2.90;1.30;;;23.40;64.50;;;;;;5029335;28;22606;-69
2022/07/31 09:50:55;;;;;;;3.15;1.48;;;23.40;64.20;;;;;;5025534;28;20029;-69
2022/07/31 09:53:21;;;;;;;3.15;1.35;;;23.50;64.10;;;;;;5028185;28;20057;-69
2022/07/31 09:55:54;;;;;;;3.53;1.45;;;23.50;64.40;;;;;;5024889;28;20028;-69
2022/07/31 09:58:21;;;;;;;;;;;23.50;64.10;;;;;;5022353;28;20052;-70
2022/07/31 10:00:49;;;;;;;4.18;1.38;;;23.50;63.80;;;;;;5026657;28;19909;-69
2022/07/31 10:03:17;;;;;;;3.55;1.40;;;23.50;63.90;;;;;;5026100;28;20029;-69
2022/07/31 10:05:43;;;;;;;3.00;1.40;;;23.60;63.60;;;;;;5024973;28;20045;-69
2022/07/31 10:08:09;;;;;;;6.07;1.83;;;23.60;63.80;;;;;;5026503;28;20060;-69
2022/07/31 10:10:35;;;;;;;3.85;1.60;;;23.60;63.70;;;;;;5025217;28;20434;-69
2022/07/31 10:13:07;;;;;;;4.55;1.70;;;23.70;63.70;;;;;;5026103;28;20035;-69
2022/07/31 10:15:34;;;;;;;3.20;1.50;;;23.70;63.40;;;;;;5026202;28;20478;-70
2022/07/31 10:18:07;;;;;;;3.35;1.80;;;23.70;63.40;;;;;;5049550;28;20029;-71
2022/07/31 10:20:33;;;;;;;3.75;1.60;;;23.70;63.40;;;;;;5024480;28;20104;-69
2022/07/31 10:23:10;;;;;;;3.25;1.52;;;23.70;63.20;;;;;;5025855;28;20108;-70
2022/07/31 10:25:38;;;;;;;3.90;1.58;;;23.70;63.10;;;;;;5026250;28;20017;-70
2022/07/31 10:28:06;;;;;;;3.17;1.42;;;23.70;63.40;;;;;;5025769;28;20574;-69
2022/07/31 10:30:32;;;;;;;4.20;2.08;;;23.70;62.80;;;;;;5029386;28;20041;-69
2022/07/31 10:32:59;;;;;;;5.15;1.80;;;23.70;63.10;;;;;;5052884;28;20030;-69
2022/07/31 10:35:27;;;;;;;5.00;1.90;;;23.80;63.40;;;;;;5003130;28;20044;-69
2022/07/31 10:38:16;;;;;;;3.92;1.50;;;23.80;63.70;;;;;;5021922;28;20120;-69
2022/07/31 10:41:02;;;;;;;4.75;1.98;;;23.80;63.50;;;;;;5022702;28;20028;-70
2022/07/31 10:43:35;;;;;;;5.22;2.10;;;23.80;63.50;;;;;;5021270;28;20560;-70
2022/07/31 10:46:01;;;;;;;4.88;1.70;;;23.80;63.30;;;;;;5021901;28;20469;-70
2022/07/31 10:48:27;;;;;;;6.00;2.20;;;23.90;63.60;;;;;;5024911;28;20029;-69
2022/07/31 10:51:08;;;;;;;8.18;2.35;;;23.80;64.00;;;;;;5023464;28;20164;-69
2022/07/31 10:53:34;;;;;;;7.53;3.00;;;23.90;64.20;;;;;;5025287;28;20113;-70
2022/07/31 10:56:09;;;;;;;8.23;3.00;;;23.80;64.20;;;;;;5026015;28;20056;-70
2022/07/31 10:58:46;;;;;;;8.25;2.83;;;23.80;64.00;;;;;;5025054;28;20474;-70
2022/07/31 11:01:12;;;;;;;7.47;3.33;;;23.90;64.00;;;;;;5022263;28;20014;-70
2022/07/31 11:03:48;;;;;;;8.02;3.20;;;23.90;64.00;;;;;;5022398;28;20028;-69
2022/07/31 11:06:17;;;;;;;12.15;3.47;;;23.90;63.90;;;;;;5022469;28;20108;-69
2022/07/31 11:08:44;;;;;;;8.88;3.47;;;23.90;63.60;;;;;;5023409;28;20034;-70
2022/07/31 11:11:10;;;;;;;8.15;3.20;;;23.90;63.40;;;;;;5025051;28;20146;-70
2022/07/31 11:13:49;;;;;;;10.82;3.85;;;23.90;63.60;;;;;;5023286;28;20104;-70
2022/07/31 11:16:14;;;;;;;8.57;3.72;;;24.00;64.10;;;;;;5022651;28;20121;-69
2022/07/31 11:18:40;;;;;;;13.82;3.90;;;24.10;63.70;;;;;;5026633;28;20590;-70
2022/07/31 11:21:08;;;;;;;11.38;3.85;;;24.20;63.40;;;;;;5032978;28;20371;-70
2022/07/31 11:23:34;;;;;;;12.73;4.15;;;24.20;63.80;;;;;;5028373;28;20087;-70
2022/07/31 11:26:01;;;;;;;12.98;4.45;;;24.10;63.60;;;;;;5031162;28;20037;-69
2022/07/31 11:28:27;;;;;;;10.48;3.97;;;24.10;63.70;;;;;;5024397;28;20022;-70
2022/07/31 11:31:03;;;;;;;11.23;4.05;;;24.00;63.90;;;;;;5033431;28;20083;-70
2022/07/31 11:33:33;;;;;;;10.40;4.50;;;24.00;63.80;;;;;;5025785;28;20048;-70
2022/07/31 11:36:20;;;;;;;10.95;4.15;;;24.00;64.10;;;;;;5025326;28;20494;-69
2022/07/31 11:38:46;;;;;;;15.80;4.22;;;24.00;63.90;;;;;;5026986;28;20038;-69
2022/07/31 11:41:12;;;;;;;8.20;3.67;;;24.00;64.20;;;;;;5023835;28;20060;-69
2022/07/31 11:43:42;;;;;;;10.35;3.92;;;24.00;64.20;;;;;;5026149;28;20179;-69
2022/07/31 11:46:08;;;;;;;7.97;3.90;;;24.00;64.30;;;;;;5023240;28;20528;-70
2022/07/31 11:48:36;;;;;;;8.13;4.15;;;24.00;64.20;;;;;;5024427;28;20017;-69
2022/07/31 11:51:02;;;;;;;8.82;3.95;;;24.00;64.60;;;;;;5025285;28;20036;-69
2022/07/31 11:53:28;;;;;;;10.45;4.00;;;24.00;64.60;;;;;;5026298;28;20041;-70
2022/07/31 11:55:55;;;;;;;9.48;4.07;;;24.00;64.70;;;;;;5027173;28;20033;-69
2022/07/31 11:58:22;;;;;;;8.98;3.80;;;24.00;65.00;;;;;;5024936;28;20042;-69
2022/07/31 12:00:52;;;;;;;7.75;3.72;;;24.00;64.80;;;;;;5028066;28;20014;-69
2022/07/31 12:03:19;;;;;;;11.32;4.13;;;24.00;64.70;;;;;;5026867;28;20033;-69
2022/07/31 12:05:46;;;;;;;7.32;3.80;;;24.10;64.40;;;;;;5029997;28;20182;-69
2022/07/31 12:08:12;;;;;;;7.97;3.80;;;24.10;64.70;;;;;;5026221;28;20183;-70
2022/07/31 12:10:40;;;;;;;6.63;3.30;;;24.10;64.60;;;;;;5030942;28;20100;-69
2022/07/31 12:13:11;;;;;;;7.40;3.17;;;24.10;64.60;;;;;;5051085;28;20030;-69
2022/07/31 12:15:36;;;;;;;7.93;3.30;;;24.10;65.40;;;;;;5028816;28;20398;-70
2022/07/31 12:18:03;;;;;;;7.75;3.25;;;24.10;65.10;;;;;;5025299;28;20046;-70
2022/07/31 12:20:30;;;;;;;15.02;2.75;;;24.10;65.00;;;;;;5027134;28;20072;-70
2022/07/31 12:22:59;;;;;;;6.90;2.70;;;24.10;65.00;;;;;;5026157;28;20025;-70
2022/07/31 12:25:25;;;;;;;8.00;3.22;;;24.10;65.00;;;;;;5027924;28;20067;-70
2022/07/31 12:27:54;;;;;;;6.53;2.72;;;24.10;65.30;;;;;;5025680;28;20029;-70
2022/07/31 12:30:24;;;;;;;7.40;2.42;;;24.10;65.20;;;;;;5028308;28;20022;-70
2022/07/31 12:32:52;;;;;;;11.55;2.67;;;24.10;65.50;;;;;;5024046;28;20034;-67
2022/07/31 12:35:18;;;;;;;8.45;2.60;;;24.10;65.20;;;;;;5023807;28;20041;-67
2022/07/31 12:37:51;;;;;;;6.95;2.28;;;24.10;65.30;;;;;;5022736;28;20084;-66
2022/07/31 12:40:26;;;;;;;5.75;2.20;;;24.10;65.30;;;;;;5024808;28;20607;-68
2022/07/31 12:42:56;;;;;;;7.65;2.20;;;24.10;65.30;;;;;;5027622;28;20489;-69
2022/07/31 12:45:28;;;;;;;5.78;2.10;;;24.10;65.40;;;;;;5026051;28;20498;-70
2022/07/31 12:47:55;;;;;;;5.15;2.25;;;24.20;66.30;;;;;;5026649;28;20490;-69